sensor_id;sensor_type;location;lat;lon;timestamp;P1;durP1;ratioP1;P2;durP2;ratioP2
19887;SDS011;10106;51.332;12.336;2023-04-25T05:07:51;650.97;;;218.77;;
19887;SDS011;10106;51.332;12.336;2023-04-25T05:10:18;655.33;;;266.33;;
19887;SDS011;10106;51.332;12.336;2023-04-25T05:12:44;658.40;;;295.97;;
19887;SDS011;10106;51.332;12.336;2023-04-25T05:15:10;672.93;;;351.30;;
19887;SDS011;10106;51.332;12.336;2023-04-25T05:17:36;671.00;;;374.67;;
19887;SDS011;10106;51.332;12.336;2023-04-25T05:20:02;682.90;;;413.10;;
19887;SDS011;10106;51.332;12.336;2023-04-25T05:22:30;686.17;;;413.57;;
19887;SDS011;10106;51.332;12.336;2023-04-25T05:24:56;690.77;;;425.27;;
19887;SDS011;10106;51.332;12.336;2023-04-25T05:27:21;693.93;;;451.43;;
19887;SDS011;10106;51.332;12.336;2023-04-25T05:29:47;693.80;;;466.90;;
19887;SDS011;10106;51.332;12.336;2023-04-25T05:32:13;694.57;;;481.50;;
19887;SDS011;10106;51.332;12.336;2023-04-25T05:34:38;690.97;;;461.77;;
19887;SDS011;10106;51.332;12.336;2023-04-25T05:37:05;686.77;;;448.30;;
19887;SDS011;10106;51.332;12.336;2023-04-25T05:39:31;683.77;;;442.13;;
19887;SDS011;10106;51.332;12.336;2023-04-25T05:41:57;688.50;;;445.63;;
19887;SDS011;10106;51.332;12.336;2023-04-25T05:44:22;703.13;;;484.13;;
19887;SDS011;10106;51.332;12.336;2023-04-25T05:46:48;701.77;;;501.03;;
19887;SDS011;10106;51.332;12.336;2023-04-25T05:49:14;703.77;;;525.53;;
19887;SDS011;10106;51.332;12.336;2023-04-25T05:51:39;706.50;;;550.87;;
19887;SDS011;10106;51.332;12.336;2023-04-25T05:54:05;719.03;;;601.67;;
19887;SDS011;10106;51.332;12.336;2023-04-25T05:56:31;734.00;;;645.13;;
19887;SDS011;10106;51.332;12.336;2023-04-25T05:58:56;728.93;;;642.00;;
19887;SDS011;10106;51.332;12.336;2023-04-25T06:01:22;731.40;;;649.07;;
19887;SDS011;10106;51.332;12.336;2023-04-25T06:03:48;742.67;;;661.37;;
19887;SDS011;10106;51.332;12.336;2023-04-25T06:06:14;740.70;;;659.57;;
19887;SDS011;10106;51.332;12.336;2023-04-25T06:08:40;753.57;;;672.30;;
19887;SDS011;10106;51.332;12.336;2023-04-25T06:11:06;778.20;;;696.07;;
19887;SDS011;10106;51.332;12.336;2023-04-25T06:13:34;818.97;;;735.50;;
19887;SDS011;10106;51.332;12.336;2023-04-25T06:15:59;812.13;;;729.23;;
19887;SDS011;10106;51.332;12.336;2023-04-25T06:18:25;828.33;;;744.63;;
19887;SDS011;10106;51.332;12.336;2023-04-25T06:20:51;875.80;;;790.53;;
19887;SDS011;10106;51.332;12.336;2023-04-25T06:23:16;874.03;;;789.17;;
19887;SDS011;10106;51.332;12.336;2023-04-25T06:25:42;942.40;;;854.83;;
19887;SDS011;10106;51.332;12.336;2023-04-25T06:28:08;954.63;;;866.87;;
19887;SDS011;10106;51.332;12.336;2023-04-25T06:30:33;953.90;;;866.23;;
19887;SDS011;10106;51.332;12.336;2023-04-25T06:32:59;954.23;;;866.47;;
19887;SDS011;10106;51.332;12.336;2023-04-25T06:35:24;943.33;;;855.87;;
19887;SDS011;10106;51.332;12.336;2023-04-25T06:37:50;867.67;;;782.80;;
19887;SDS011;10106;51.332;12.336;2023-04-25T06:40:16;840.73;;;757.13;;
19887;SDS011;10106;51.332;12.336;2023-04-25T06:42:42;754.30;;;672.43;;
19887;SDS011;10106;51.332;12.336;2023-04-25T06:45:08;726.00;;;641.47;;
19887;SDS011;10106;51.332;12.336;2023-04-25T06:47:34;717.27;;;606.83;;
19887;SDS011;10106;51.332;12.336;2023-04-25T06:50:00;723.90;;;633.60;;
19887;SDS011;10106;51.332;12.336;2023-04-25T06:52:25;723.20;;;628.33;;
19887;SDS011;10106;51.332;12.336;2023-04-25T06:54:51;707.27;;;568.77;;
19887;SDS011;10106;51.332;12.336;2023-04-25T06:57:17;699.30;;;510.20;;
19887;SDS011;10106;51.332;12.336;2023-04-25T06:59:42;691.93;;;499.37;;
19887;SDS011;10106;51.332;12.336;2023-04-25T07:02:08;690.40;;;466.10;;
19887;SDS011;10106;51.332;12.336;2023-04-25T07:04:34;679.87;;;423.40;;
19887;SDS011;10106;51.332;12.336;2023-04-25T07:09:27;662.43;;;343.37;;
19887;SDS011;10106;51.332;12.336;2023-04-25T07:16:45;937.70;;;850.95;;
19887;SDS011;10106;51.332;12.336;2023-04-25T07:19:10;656.20;;;339.23;;
19887;SDS011;10106;51.332;12.336;2023-04-25T07:21:36;645.10;;;279.70;;
19887;SDS011;10106;51.332;12.336;2023-04-25T07:24:02;640.63;;;266.47;;
19887;SDS011;10106;51.332;12.336;2023-04-25T07:26:28;635.87;;;256.80;;
19887;SDS011;10106;51.332;12.336;2023-04-25T07:28:53;638.30;;;248.13;;
19887;SDS011;10106;51.332;12.336;2023-04-25T07:50:45;610.77;;;165.37;;
19887;SDS011;10106;51.332;12.336;2023-04-25T07:53:11;766.00;;;684.50;;
19887;SDS011;10106;51.332;12.336;2023-04-25T07:55:36;965.60;;;878.73;;
19887;SDS011;10106;51.332;12.336;2023-04-25T07:58:05;1029.55;;;940.55;;
19887;SDS011;10106;51.332;12.336;2023-04-25T08:00:31;1018.42;;;929.75;;
19887;SDS011;10106;51.332;12.336;2023-04-25T08:02:57;1013.00;;;924.85;;
19887;SDS011;10106;51.332;12.336;2023-04-25T08:05:23;994.20;;;906.50;;
19887;SDS011;10106;51.332;12.336;2023-04-25T08:07:49;1006.00;;;917.60;;
19887;SDS011;10106;51.332;12.336;2023-04-25T08:10:15;1010.95;;;922.60;;
19887;SDS011;10106;51.332;12.336;2023-04-25T08:12:40;1029.70;;;940.20;;
19887;SDS011;10106;51.332;12.336;2023-04-25T08:15:06;1007.10;;;919.13;;
19887;SDS011;10106;51.332;12.336;2023-04-25T08:17:32;1017.87;;;929.20;;
19887;SDS011;10106;51.332;12.336;2023-04-25T08:19:58;1000.85;;;913.25;;
19887;SDS011;10106;51.332;12.336;2023-04-25T08:22:24;1002.72;;;914.97;;
19887;SDS011;10106;51.332;12.336;2023-04-25T08:24:49;1011.27;;;923.17;;
19887;SDS011;10106;51.332;12.336;2023-04-25T08:27:16;1038.70;;;949.38;;
19887;SDS011;10106;51.332;12.336;2023-04-25T08:29:45;636.53;;;276.43;;
19887;SDS011;10106;51.332;12.336;2023-04-25T08:32:11;972.13;;;885.17;;
19887;SDS011;10106;51.332;12.336;2023-04-25T08:39:30;624.37;;;221.50;;
19887;SDS011;10106;51.332;12.336;2023-04-25T08:41:56;628.07;;;224.27;;
19887;SDS011;10106;51.332;12.336;2023-04-25T08:44:21;625.47;;;218.00;;
19887;SDS011;10106;51.332;12.336;2023-04-25T08:46:48;621.97;;;211.20;;
19887;SDS011;10106;51.332;12.336;2023-04-25T08:49:15;618.67;;;213.07;;
19887;SDS011;10106;51.332;12.336;2023-04-25T08:51:46;617.97;;;199.60;;
19887;SDS011;10106;51.332;12.336;2023-04-25T08:54:13;621.23;;;202.33;;
19887;SDS011;10106;51.332;12.336;2023-04-25T08:56:41;624.27;;;215.23;;
19887;SDS011;10106;51.332;12.336;2023-04-25T08:59:12;623.17;;;218.33;;
19887;SDS011;10106;51.332;12.336;2023-04-25T09:01:38;625.37;;;233.03;;
19887;SDS011;10106;51.332;12.336;2023-04-25T09:04:04;626.53;;;229.83;;
19887;SDS011;10106;51.332;12.336;2023-04-25T09:06:30;629.27;;;237.40;;
19887;SDS011;10106;51.332;12.336;2023-04-25T09:09:15;622.20;;;221.73;;
19887;SDS011;10106;51.332;12.336;2023-04-25T09:11:40;623.40;;;225.23;;
19887;SDS011;10106;51.332;12.336;2023-04-25T09:14:14;932.77;;;847.37;;
19887;SDS011;10106;51.332;12.336;2023-04-25T09:19:22;641.27;;;276.70;;
19887;SDS011;10106;51.332;12.336;2023-04-25T09:21:53;640.40;;;271.80;;
19887;SDS011;10106;51.332;12.336;2023-04-25T09:26:59;639.07;;;275.93;;
19887;SDS011;10106;51.332;12.336;2023-04-25T09:29:30;638.10;;;270.67;;
19887;SDS011;10106;51.332;12.336;2023-04-25T09:32:14;643.27;;;290.97;;
19887;SDS011;10106;51.332;12.336;2023-04-25T09:34:46;643.33;;;299.57;;
19887;SDS011;10106;51.332;12.336;2023-04-25T09:37:23;647.67;;;286.07;;
19887;SDS011;10106;51.332;12.336;2023-04-25T09:39:56;640.20;;;279.60;;
19887;SDS011;10106;51.332;12.336;2023-04-25T09:42:27;641.80;;;270.73;;
19887;SDS011;10106;51.332;12.336;2023-04-25T09:44:54;639.67;;;274.50;;
19887;SDS011;10106;51.332;12.336;2023-04-25T09:47:21;633.63;;;244.57;;
19887;SDS011;10106;51.332;12.336;2023-04-25T09:49:54;637.33;;;252.37;;
19887;SDS011;10106;51.332;12.336;2023-04-25T09:52:21;626.10;;;228.37;;
19887;SDS011;10106;51.332;12.336;2023-04-25T09:54:51;625.13;;;225.17;;
19887;SDS011;10106;51.332;12.336;2023-04-25T09:57:21;631.17;;;239.33;;
19887;SDS011;10106;51.332;12.336;2023-04-25T09:59:49;627.00;;;228.43;;
19887;SDS011;10106;51.332;12.336;2023-04-25T10:02:18;627.77;;;247.20;;
19887;SDS011;10106;51.332;12.336;2023-04-25T10:04:49;635.37;;;273.93;;
19887;SDS011;10106;51.332;12.336;2023-04-25T10:07:17;649.90;;;264.87;;
19887;SDS011;10106;51.332;12.336;2023-04-25T10:09:44;629.63;;;230.03;;
19887;SDS011;10106;51.332;12.336;2023-04-25T10:14:41;971.30;;;884.03;;
19887;SDS011;10106;51.332;12.336;2023-04-25T10:17:08;645.37;;;286.13;;
19887;SDS011;10106;51.332;12.336;2023-04-25T10:19:36;636.67;;;240.10;;
19887;SDS011;10106;51.332;12.336;2023-04-25T10:24:33;648.10;;;309.53;;
19887;SDS011;10106;51.332;12.336;2023-04-25T10:27:02;645.07;;;303.33;;
19887;SDS011;10106;51.332;12.336;2023-04-25T10:29:28;643.63;;;318.37;;
19887;SDS011;10106;51.332;12.336;2023-04-25T10:31:54;637.03;;;291.47;;
19887;SDS011;10106;51.332;12.336;2023-04-25T10:34:23;638.30;;;240.23;;
19887;SDS011;10106;51.332;12.336;2023-04-25T10:37:03;638.27;;;264.40;;
19887;SDS011;10106;51.332;12.336;2023-04-25T10:39:33;642.83;;;276.67;;
19887;SDS011;10106;51.332;12.336;2023-04-25T10:41:59;640.43;;;275.67;;
19887;SDS011;10106;51.332;12.336;2023-04-25T10:44:28;639.53;;;276.57;;
19887;SDS011;10106;51.332;12.336;2023-04-25T10:46:55;643.40;;;282.87;;
19887;SDS011;10106;51.332;12.336;2023-04-25T10:49:33;637.03;;;279.27;;
19887;SDS011;10106;51.332;12.336;2023-04-25T10:52:13;644.30;;;301.60;;
19887;SDS011;10106;51.332;12.336;2023-04-25T10:54:47;639.07;;;285.07;;
19887;SDS011;10106;51.332;12.336;2023-04-25T11:00:17;1008.35;;;918.80;;
19887;SDS011;10106;51.332;12.336;2023-04-25T11:03:08;662.07;;;433.40;;
19887;SDS011;10106;51.332;12.336;2023-04-25T11:05:34;641.87;;;324.93;;
19887;SDS011;10106;51.332;12.336;2023-04-25T11:08:01;651.43;;;353.40;;
19887;SDS011;10106;51.332;12.336;2023-04-25T11:10:28;638.33;;;300.67;;
19887;SDS011;10106;51.332;12.336;2023-04-25T11:12:55;621.90;;;210.97;;
19887;SDS011;10106;51.332;12.336;2023-04-25T11:15:22;631.40;;;250.50;;
19887;SDS011;10106;51.332;12.336;2023-04-25T11:17:48;622.73;;;202.50;;
19887;SDS011;10106;51.332;12.336;2023-04-25T11:20:16;625.37;;;215.87;;
19887;SDS011;10106;51.332;12.336;2023-04-25T11:22:41;632.00;;;221.97;;
19887;SDS011;10106;51.332;12.336;2023-04-25T11:25:10;625.23;;;185.60;;
19887;SDS011;10106;51.332;12.336;2023-04-25T11:27:38;626.70;;;194.17;;
19887;SDS011;10106;51.332;12.336;2023-04-25T11:30:15;708.50;;;254.10;;
19887;SDS011;10106;51.332;12.336;2023-04-25T11:32:41;682.50;;;264.50;;
19887;SDS011;10106;51.332;12.336;2023-04-25T11:35:10;668.20;;;242.00;;
19887;SDS011;10106;51.332;12.336;2023-04-25T11:37:36;622.77;;;186.07;;
19887;SDS011;10106;51.332;12.336;2023-04-25T11:40:04;619.90;;;187.40;;
19887;SDS011;10106;51.332;12.336;2023-04-25T11:42:36;666.13;;;271.73;;
19887;SDS011;10106;51.332;12.336;2023-04-25T11:45:03;622.67;;;190.57;;
19887;SDS011;10106;51.332;12.336;2023-04-25T11:47:30;639.23;;;201.50;;
19887;SDS011;10106;51.332;12.336;2023-04-25T11:50:00;633.05;;;234.90;;
19887;SDS011;10106;51.332;12.336;2023-04-25T11:52:37;668.85;;;255.00;;
19887;SDS011;10106;51.332;12.336;2023-04-25T11:55:05;635.90;;;238.30;;
19887;SDS011;10106;51.332;12.336;2023-04-25T11:57:35;834.95;;;751.63;;
19887;SDS011;10106;51.332;12.336;2023-04-25T12:00:16;636.73;;;263.13;;
19887;SDS011;10106;51.332;12.336;2023-04-25T12:05:10;651.40;;;148.90;;
19887;SDS011;10106;51.332;12.336;2023-04-25T12:12:33;880.33;;;796.08;;
19887;SDS011;10106;51.332;12.336;2023-04-25T12:15:12;656.73;;;388.57;;
19887;SDS011;10106;51.332;12.336;2023-04-25T12:17:45;1044.40;;;953.15;;
19887;SDS011;10106;51.332;12.336;2023-04-25T12:20:18;666.20;;;427.50;;
19887;SDS011;10106;51.332;12.336;2023-04-25T12:22:46;693.15;;;403.75;;
19887;SDS011;10106;51.332;12.336;2023-04-25T12:25:36;606.90;;;201.80;;
19887;SDS011;10106;51.332;12.336;2023-04-25T12:30:58;624.47;;;258.63;;
19887;SDS011;10106;51.332;12.336;2023-04-25T12:33:29;681.40;;;435.73;;
19887;SDS011;10106;51.332;12.336;2023-04-25T12:35:57;672.03;;;408.93;;
19887;SDS011;10106;51.332;12.336;2023-04-25T12:38:34;676.57;;;403.50;;
19887;SDS011;10106;51.332;12.336;2023-04-25T12:43:27;968.28;;;881.05;;
19887;SDS011;10106;51.332;12.336;2023-04-25T12:45:53;500.20;;;425.07;;
19887;SDS011;10106;51.332;12.336;2023-04-25T12:48:20;721.20;;;393.93;;
19887;SDS011;10106;51.332;12.336;2023-04-25T12:50:46;660.87;;;381.10;;
19887;SDS011;10106;51.332;12.336;2023-04-25T12:53:17;676.10;;;409.23;;
19887;SDS011;10106;51.332;12.336;2023-04-25T12:55:47;942.55;;;854.50;;
19887;SDS011;10106;51.332;12.336;2023-04-25T12:58:16;648.40;;;321.07;;
19887;SDS011;10106;51.332;12.336;2023-04-25T13:00:43;656.90;;;270.37;;
19887;SDS011;10106;51.332;12.336;2023-04-25T13:03:11;650.60;;;289.30;;
19887;SDS011;10106;51.332;12.336;2023-04-25T13:05:37;635.87;;;250.47;;
19887;SDS011;10106;51.332;12.336;2023-04-25T13:08:03;633.10;;;225.13;;
19887;SDS011;10106;51.332;12.336;2023-04-25T13:10:29;634.50;;;233.97;;
19887;SDS011;10106;51.332;12.336;2023-04-25T13:12:55;628.73;;;210.53;;
19887;SDS011;10106;51.332;12.336;2023-04-25T13:15:21;658.47;;;305.43;;
19887;SDS011;10106;51.332;12.336;2023-04-25T13:17:48;921.45;;;835.80;;
19887;SDS011;10106;51.332;12.336;2023-04-25T13:20:14;1029.70;;;940.63;;
19887;SDS011;10106;51.332;12.336;2023-04-25T13:22:41;1064.65;;;974.33;;
19887;SDS011;10106;51.332;12.336;2023-04-25T13:25:08;1040.50;;;951.30;;
19887;SDS011;10106;51.332;12.336;2023-04-25T13:27:34;1058.07;;;968.30;;
19887;SDS011;10106;51.332;12.336;2023-04-25T13:35:04;632.97;;;250.07;;
19887;SDS011;10106;51.332;12.336;2023-04-25T13:37:32;657.57;;;327.93;;
19887;SDS011;10106;51.332;12.336;2023-04-25T13:40:07;649.97;;;280.30;;
19887;SDS011;10106;51.332;12.336;2023-04-25T13:42:38;649.10;;;283.10;;
19887;SDS011;10106;51.332;12.336;2023-04-25T13:45:04;1040.20;;;950.50;;
19887;SDS011;10106;51.332;12.336;2023-04-25T13:47:30;667.87;;;363.83;;
19887;SDS011;10106;51.332;12.336;2023-04-25T13:49:56;660.40;;;342.33;;
19887;SDS011;10106;51.332;12.336;2023-04-25T13:52:22;678.43;;;341.63;;
19887;SDS011;10106;51.332;12.336;2023-04-25T13:54:50;662.97;;;375.17;;
19887;SDS011;10106;51.332;12.336;2023-04-25T13:57:17;666.07;;;396.77;;
19887;SDS011;10106;51.332;12.336;2023-04-25T13:59:43;666.57;;;349.20;;
19887;SDS011;10106;51.332;12.336;2023-04-25T14:02:08;657.73;;;352.03;;
19887;SDS011;10106;51.332;12.336;2023-04-25T14:04:34;664.10;;;393.83;;
19887;SDS011;10106;51.332;12.336;2023-04-25T14:07:00;658.77;;;350.67;;
19887;SDS011;10106;51.332;12.336;2023-04-25T14:09:27;662.00;;;327.33;;
19887;SDS011;10106;51.332;12.336;2023-04-25T14:12:03;655.87;;;316.80;;
19887;SDS011;10106;51.332;12.336;2023-04-25T14:14:30;656.40;;;335.07;;
19887;SDS011;10106;51.332;12.336;2023-04-25T14:16:56;652.33;;;306.17;;
19887;SDS011;10106;51.332;12.336;2023-04-25T14:19:24;655.50;;;314.60;;
19887;SDS011;10106;51.332;12.336;2023-04-25T14:21:50;651.97;;;317.70;;
19887;SDS011;10106;51.332;12.336;2023-04-25T14:24:16;653.10;;;308.77;;
19887;SDS011;10106;51.332;12.336;2023-04-25T14:26:41;649.13;;;292.83;;
19887;SDS011;10106;51.332;12.336;2023-04-25T14:29:08;646.53;;;278.13;;
19887;SDS011;10106;51.332;12.336;2023-04-25T14:31:36;637.87;;;251.97;;
19887;SDS011;10106;51.332;12.336;2023-04-25T14:34:02;640.17;;;269.87;;
19887;SDS011;10106;51.332;12.336;2023-04-25T14:36:31;661.07;;;344.73;;
19887;SDS011;10106;51.332;12.336;2023-04-25T14:38:58;643.40;;;281.03;;
19887;SDS011;10106;51.332;12.336;2023-04-25T14:41:24;638.73;;;248.47;;
19887;SDS011;10106;51.332;12.336;2023-04-25T14:43:51;641.23;;;262.13;;
19887;SDS011;10106;51.332;12.336;2023-04-25T14:46:18;637.13;;;251.97;;
19887;SDS011;10106;51.332;12.336;2023-04-25T14:48:44;639.90;;;279.93;;
19887;SDS011;10106;51.332;12.336;2023-04-25T14:51:13;645.80;;;305.37;;
19887;SDS011;10106;51.332;12.336;2023-04-25T14:53:40;646.07;;;278.60;;
19887;SDS011;10106;51.332;12.336;2023-04-25T14:56:06;644.27;;;298.37;;
19887;SDS011;10106;51.332;12.336;2023-04-25T14:58:32;638.37;;;266.70;;
19887;SDS011;10106;51.332;12.336;2023-04-25T15:00:59;654.20;;;350.40;;
19887;SDS011;10106;51.332;12.336;2023-04-25T15:03:24;638.63;;;289.03;;
19887;SDS011;10106;51.332;12.336;2023-04-25T15:05:51;646.47;;;303.77;;
19887;SDS011;10106;51.332;12.336;2023-04-25T15:08:17;642.30;;;282.87;;
19887;SDS011;10106;51.332;12.336;2023-04-25T15:10:49;640.97;;;288.53;;
19887;SDS011;10106;51.332;12.336;2023-04-25T15:13:15;640.27;;;283.43;;
19887;SDS011;10106;51.332;12.336;2023-04-25T15:15:42;985.58;;;898.17;;
19887;SDS011;10106;51.332;12.336;2023-04-25T15:18:08;1021.37;;;932.07;;
19887;SDS011;10106;51.332;12.336;2023-04-25T15:20:34;649.20;;;309.50;;
19887;SDS011;10106;51.332;12.336;2023-04-25T15:23:00;1004.25;;;914.22;;
19887;SDS011;10106;51.332;12.336;2023-04-25T15:25:28;663.63;;;365.53;;
19887;SDS011;10106;51.332;12.336;2023-04-25T15:27:54;1056.75;;;966.33;;
19887;SDS011;10106;51.332;12.336;2023-04-25T15:30:19;658.63;;;378.70;;
19887;SDS011;10106;51.332;12.336;2023-04-25T15:35:12;652.67;;;308.27;;
19887;SDS011;10106;51.332;12.336;2023-04-25T15:37:39;1014.40;;;924.97;;
19887;SDS011;10106;51.332;12.336;2023-04-25T15:40:06;676.50;;;422.70;;
19887;SDS011;10106;51.332;12.336;2023-04-25T15:42:38;673.07;;;422.73;;
19887;SDS011;10106;51.332;12.336;2023-04-25T15:45:06;674.23;;;355.73;;
19887;SDS011;10106;51.332;12.336;2023-04-25T15:47:36;995.97;;;906.65;;
19887;SDS011;10106;51.332;12.336;2023-04-25T15:52:32;675.40;;;375.20;;
19887;SDS011;10106;51.332;12.336;2023-04-25T15:54:58;657.20;;;344.47;;
19887;SDS011;10106;51.332;12.336;2023-04-25T15:57:25;678.37;;;349.50;;
19887;SDS011;10106;51.332;12.336;2023-04-25T15:59:51;675.35;;;336.75;;
19887;SDS011;10106;51.332;12.336;2023-04-25T16:02:17;957.07;;;870.53;;
19887;SDS011;10106;51.332;12.336;2023-04-25T16:04:43;907.15;;;816.60;;
19887;SDS011;10106;51.332;12.336;2023-04-25T16:07:11;1070.50;;;977.72;;
19887;SDS011;10106;51.332;12.336;2023-04-25T16:09:37;1041.38;;;948.60;;
19887;SDS011;10106;51.332;12.336;2023-04-25T16:12:03;1107.85;;;999.90;;
19887;SDS011;10106;51.332;12.336;2023-04-25T16:14:29;1104.00;;;999.90;;
19887;SDS011;10106;51.332;12.336;2023-04-25T16:19:21;1027.90;;;936.03;;
19887;SDS011;10106;51.332;12.336;2023-04-25T16:21:53;959.08;;;866.83;;
19887;SDS011;10106;51.332;12.336;2023-04-25T16:24:18;663.50;;;375.80;;
19887;SDS011;10106;51.332;12.336;2023-04-25T16:26:44;657.20;;;370.27;;
19887;SDS011;10106;51.332;12.336;2023-04-25T16:29:10;648.90;;;324.20;;
19887;SDS011;10106;51.332;12.336;2023-04-25T16:31:38;1034.25;;;942.90;;
19887;SDS011;10106;51.332;12.336;2023-04-25T16:34:04;1037.88;;;946.20;;
19887;SDS011;10106;51.332;12.336;2023-04-25T16:36:29;1044.33;;;954.33;;
19887;SDS011;10106;51.332;12.336;2023-04-25T16:38:56;1062.95;;;969.60;;
19887;SDS011;10106;51.332;12.336;2023-04-25T16:41:23;1062.25;;;968.55;;
19887;SDS011;10106;51.332;12.336;2023-04-25T16:43:49;1052.57;;;960.00;;
19887;SDS011;10106;51.332;12.336;2023-04-25T16:46:15;1088.05;;;994.88;;
19887;SDS011;10106;51.332;12.336;2023-04-25T16:48:43;1067.37;;;974.07;;
19887;SDS011;10106;51.332;12.336;2023-04-25T16:51:10;1004.70;;;912.35;;
19887;SDS011;10106;51.332;12.336;2023-04-25T16:53:36;1073.20;;;979.80;;
19887;SDS011;10106;51.332;12.336;2023-04-25T16:56:02;1107.53;;;999.90;;
19887;SDS011;10106;51.332;12.336;2023-04-25T16:58:28;1090.10;;;998.20;;
19887;SDS011;10106;51.332;12.336;2023-04-25T17:03:20;936.92;;;846.10;;
19887;SDS011;10106;51.332;12.336;2023-04-25T17:05:47;725.75;;;595.25;;
19887;SDS011;10106;51.332;12.336;2023-04-25T17:08:15;681.75;;;513.70;;
19887;SDS011;10106;51.332;12.336;2023-04-25T17:10:41;741.40;;;582.97;;
19887;SDS011;10106;51.332;12.336;2023-04-25T17:13:07;1031.07;;;939.97;;
19887;SDS011;10106;51.332;12.336;2023-04-25T17:15:33;689.53;;;147.23;;
